sensor_id;sensor_type;location;lat;lon;timestamp;P1;durP1;ratioP1;P2;durP2;ratioP2
34072;SDS011;20346;52.702;16.886;2022-11-18T00:01:17;20.52;;;15.50;;
34072;SDS011;20346;52.702;16.886;2022-11-18T00:04:04;18.77;;;13.58;;
34072;SDS011;20346;52.702;16.886;2022-11-18T00:06:48;20.77;;;14.78;;
34072;SDS011;20346;52.702;16.886;2022-11-18T00:09:33;18.92;;;14.53;;
34072;SDS011;20346;52.702;16.886;2022-11-18T00:12:18;20.55;;;14.47;;
34072;SDS011;20346;52.702;16.886;2022-11-18T00:15:22;25.00;;;15.38;;
34072;SDS011;20346;52.702;16.886;2022-11-18T00:18:07;21.60;;;14.83;;
34072;SDS011;20346;52.702;16.886;2022-11-18T00:20:52;22.15;;;15.13;;
34072;SDS011;20346;52.702;16.886;2022-11-18T00:23:37;27.00;;;17.30;;
34072;SDS011;20346;52.702;16.886;2022-11-18T00:26:22;27.93;;;18.12;;
34072;SDS011;20346;52.702;16.886;2022-11-18T00:29:08;34.85;;;18.42;;
34072;SDS011;20346;52.702;16.886;2022-11-18T00:31:54;29.05;;;18.35;;
34072;SDS011;20346;52.702;16.886;2022-11-18T00:34:39;26.12;;;17.45;;
34072;SDS011;20346;52.702;16.886;2022-11-18T00:37:25;28.42;;;18.67;;
34072;SDS011;20346;52.702;16.886;2022-11-18T00:40:10;27.48;;;17.17;;
34072;SDS011;20346;52.702;16.886;2022-11-18T00:42:55;26.00;;;18.10;;
34072;SDS011;20346;52.702;16.886;2022-11-18T00:45:41;24.60;;;16.65;;
34072;SDS011;20346;52.702;16.886;2022-11-18T00:48:26;22.67;;;16.85;;
34072;SDS011;20346;52.702;16.886;2022-11-18T00:51:13;24.77;;;16.45;;
34072;SDS011;20346;52.702;16.886;2022-11-18T00:54:00;18.55;;;14.70;;
34072;SDS011;20346;52.702;16.886;2022-11-18T00:56:44;20.50;;;15.48;;
34072;SDS011;20346;52.702;16.886;2022-11-18T00:59:30;24.63;;;15.47;;
34072;SDS011;20346;52.702;16.886;2022-11-18T01:02:15;23.75;;;16.37;;
34072;SDS011;20346;52.702;16.886;2022-11-18T01:05:00;22.87;;;16.55;;
34072;SDS011;20346;52.702;16.886;2022-11-18T01:07:45;24.30;;;16.05;;
34072;SDS011;20346;52.702;16.886;2022-11-18T01:10:30;22.17;;;16.12;;
34072;SDS011;20346;52.702;16.886;2022-11-18T01:13:16;22.85;;;16.02;;
34072;SDS011;20346;52.702;16.886;2022-11-18T01:16:02;19.57;;;14.83;;
34072;SDS011;20346;52.702;16.886;2022-11-18T01:18:47;23.90;;;15.48;;
34072;SDS011;20346;52.702;16.886;2022-11-18T01:21:32;24.15;;;15.30;;
34072;SDS011;20346;52.702;16.886;2022-11-18T01:24:17;23.10;;;15.90;;
34072;SDS011;20346;52.702;16.886;2022-11-18T01:27:02;20.80;;;14.95;;
34072;SDS011;20346;52.702;16.886;2022-11-18T01:29:47;24.45;;;15.80;;
34072;SDS011;20346;52.702;16.886;2022-11-18T01:32:32;26.77;;;17.67;;
34072;SDS011;20346;52.702;16.886;2022-11-18T01:35:17;23.55;;;16.90;;
34072;SDS011;20346;52.702;16.886;2022-11-18T01:38:02;29.80;;;17.77;;
34072;SDS011;20346;52.702;16.886;2022-11-18T01:40:48;25.72;;;17.23;;
34072;SDS011;20346;52.702;16.886;2022-11-18T01:46:39;26.82;;;17.85;;
34072;SDS011;20346;52.702;16.886;2022-11-18T01:49:24;30.97;;;17.10;;
34072;SDS011;20346;52.702;16.886;2022-11-18T01:52:09;25.40;;;17.12;;
34072;SDS011;20346;52.702;16.886;2022-11-18T01:54:56;28.45;;;18.32;;
34072;SDS011;20346;52.702;16.886;2022-11-18T01:57:46;23.57;;;17.48;;
34072;SDS011;20346;52.702;16.886;2022-11-18T02:00:33;26.27;;;18.02;;
34072;SDS011;20346;52.702;16.886;2022-11-18T02:03:17;25.55;;;16.52;;
34072;SDS011;20346;52.702;16.886;2022-11-18T02:06:05;26.20;;;15.75;;
34072;SDS011;20346;52.702;16.886;2022-11-18T02:08:51;26.65;;;15.95;;
34072;SDS011;20346;52.702;16.886;2022-11-18T02:11:37;26.15;;;17.27;;
34072;SDS011;20346;52.702;16.886;2022-11-18T02:14:34;27.50;;;17.87;;
34072;SDS011;20346;52.702;16.886;2022-11-18T02:17:30;43.73;;;22.45;;
34072;SDS011;20346;52.702;16.886;2022-11-18T02:20:38;33.02;;;19.20;;
34072;SDS011;20346;52.702;16.886;2022-11-18T02:23:41;33.20;;;20.70;;
34072;SDS011;20346;52.702;16.886;2022-11-18T02:35:43;26.68;;;15.85;;
34072;SDS011;20346;52.702;16.886;2022-11-18T02:38:42;28.40;;;17.15;;
34072;SDS011;20346;52.702;16.886;2022-11-18T02:41:32;29.27;;;16.85;;
34072;SDS011;20346;52.702;16.886;2022-11-18T02:44:19;27.95;;;17.42;;
34072;SDS011;20346;52.702;16.886;2022-11-18T02:47:08;32.50;;;18.12;;
34072;SDS011;20346;52.702;16.886;2022-11-18T02:50:00;34.88;;;18.90;;
34072;SDS011;20346;52.702;16.886;2022-11-18T02:52:50;34.98;;;18.37;;
34072;SDS011;20346;52.702;16.886;2022-11-18T02:55:38;33.55;;;20.68;;
34072;SDS011;20346;52.702;16.886;2022-11-18T02:58:25;33.50;;;20.30;;
34072;SDS011;20346;52.702;16.886;2022-11-18T03:01:17;41.03;;;22.57;;
34072;SDS011;20346;52.702;16.886;2022-11-18T03:04:12;32.17;;;19.98;;
34072;SDS011;20346;52.702;16.886;2022-11-18T03:07:04;38.50;;;22.10;;
34072;SDS011;20346;52.702;16.886;2022-11-18T03:10:04;37.50;;;20.55;;
34072;SDS011;20346;52.702;16.886;2022-11-18T03:12:57;34.40;;;19.27;;
34072;SDS011;20346;52.702;16.886;2022-11-18T03:22:05;38.05;;;21.35;;
34072;SDS011;20346;52.702;16.886;2022-11-18T03:25:05;34.27;;;20.88;;
34072;SDS011;20346;52.702;16.886;2022-11-18T03:28:08;39.42;;;22.37;;
34072;SDS011;20346;52.702;16.886;2022-11-18T03:31:27;35.58;;;20.88;;
34072;SDS011;20346;52.702;16.886;2022-11-18T03:34:27;37.78;;;21.20;;
34072;SDS011;20346;52.702;16.886;2022-11-18T03:37:23;36.30;;;21.02;;
34072;SDS011;20346;52.702;16.886;2022-11-18T03:40:21;36.68;;;20.92;;
34072;SDS011;20346;52.702;16.886;2022-11-18T03:43:07;33.60;;;20.20;;
34072;SDS011;20346;52.702;16.886;2022-11-18T03:46:08;37.13;;;21.17;;
34072;SDS011;20346;52.702;16.886;2022-11-18T03:48:59;34.67;;;20.25;;
34072;SDS011;20346;52.702;16.886;2022-11-18T03:51:46;39.30;;;20.20;;
34072;SDS011;20346;52.702;16.886;2022-11-18T03:54:35;36.35;;;20.52;;
34072;SDS011;20346;52.702;16.886;2022-11-18T03:57:24;36.40;;;21.42;;
34072;SDS011;20346;52.702;16.886;2022-11-18T04:00:36;34.92;;;19.90;;
34072;SDS011;20346;52.702;16.886;2022-11-18T04:03:24;36.08;;;20.82;;
34072;SDS011;20346;52.702;16.886;2022-11-18T04:06:13;34.65;;;20.30;;
34072;SDS011;20346;52.702;16.886;2022-11-18T04:09:18;30.88;;;19.30;;
34072;SDS011;20346;52.702;16.886;2022-11-18T04:12:13;35.90;;;20.60;;
34072;SDS011;20346;52.702;16.886;2022-11-18T04:15:01;30.80;;;19.23;;
34072;SDS011;20346;52.702;16.886;2022-11-18T04:17:46;27.17;;;18.25;;
34072;SDS011;20346;52.702;16.886;2022-11-18T04:20:31;26.62;;;17.25;;
34072;SDS011;20346;52.702;16.886;2022-11-18T04:23:16;26.62;;;15.03;;
34072;SDS011;20346;52.702;16.886;2022-11-18T04:26:01;20.68;;;14.60;;
34072;SDS011;20346;52.702;16.886;2022-11-18T04:28:46;18.55;;;12.75;;
34072;SDS011;20346;52.702;16.886;2022-11-18T04:31:31;18.12;;;12.25;;
34072;SDS011;20346;52.702;16.886;2022-11-18T04:34:16;16.50;;;10.82;;
34072;SDS011;20346;52.702;16.886;2022-11-18T04:37:01;14.75;;;10.70;;
34072;SDS011;20346;52.702;16.886;2022-11-18T04:39:46;14.33;;;10.95;;
34072;SDS011;20346;52.702;16.886;2022-11-18T04:42:31;17.32;;;11.22;;
34072;SDS011;20346;52.702;16.886;2022-11-18T04:45:16;15.35;;;12.37;;
34072;SDS011;20346;52.702;16.886;2022-11-18T04:48:01;14.30;;;11.43;;
34072;SDS011;20346;52.702;16.886;2022-11-18T04:50:46;13.22;;;10.30;;
34072;SDS011;20346;52.702;16.886;2022-11-18T04:53:31;13.05;;;9.90;;
34072;SDS011;20346;52.702;16.886;2022-11-18T04:56:16;12.33;;;10.10;;
34072;SDS011;20346;52.702;16.886;2022-11-18T04:59:01;14.10;;;10.48;;
34072;SDS011;20346;52.702;16.886;2022-11-18T05:01:47;14.05;;;9.58;;
34072;SDS011;20346;52.702;16.886;2022-11-18T05:04:33;22.77;;;14.18;;
34072;SDS011;20346;52.702;16.886;2022-11-18T05:07:18;12.33;;;10.08;;
34072;SDS011;20346;52.702;16.886;2022-11-18T05:10:03;13.88;;;10.32;;
34072;SDS011;20346;52.702;16.886;2022-11-18T05:12:49;13.75;;;10.95;;
34072;SDS011;20346;52.702;16.886;2022-11-18T05:15:35;14.85;;;11.18;;
34072;SDS011;20346;52.702;16.886;2022-11-18T05:18:20;18.02;;;12.73;;
34072;SDS011;20346;52.702;16.886;2022-11-18T05:21:05;14.25;;;10.80;;
34072;SDS011;20346;52.702;16.886;2022-11-18T05:23:50;13.80;;;10.82;;
34072;SDS011;20346;52.702;16.886;2022-11-18T05:26:35;13.85;;;10.63;;
34072;SDS011;20346;52.702;16.886;2022-11-18T05:29:20;14.53;;;11.53;;
34072;SDS011;20346;52.702;16.886;2022-11-18T05:32:06;18.02;;;13.28;;
34072;SDS011;20346;52.702;16.886;2022-11-18T05:34:51;17.12;;;11.88;;
34072;SDS011;20346;52.702;16.886;2022-11-18T05:37:36;16.80;;;12.47;;
34072;SDS011;20346;52.702;16.886;2022-11-18T05:40:21;16.40;;;12.07;;
34072;SDS011;20346;52.702;16.886;2022-11-18T05:43:07;17.30;;;12.00;;
34072;SDS011;20346;52.702;16.886;2022-11-18T05:45:56;20.20;;;11.63;;
34072;SDS011;20346;52.702;16.886;2022-11-18T05:48:41;16.87;;;12.33;;
34072;SDS011;20346;52.702;16.886;2022-11-18T05:51:26;15.28;;;10.70;;
34072;SDS011;20346;52.702;16.886;2022-11-18T05:54:11;17.73;;;12.60;;
34072;SDS011;20346;52.702;16.886;2022-11-18T05:56:59;15.30;;;12.05;;
34072;SDS011;20346;52.702;16.886;2022-11-18T05:59:44;15.53;;;11.35;;
34072;SDS011;20346;52.702;16.886;2022-11-18T06:02:29;14.20;;;10.38;;
34072;SDS011;20346;52.702;16.886;2022-11-18T06:05:15;14.75;;;10.08;;
34072;SDS011;20346;52.702;16.886;2022-11-18T06:08:01;13.18;;;9.93;;
34072;SDS011;20346;52.702;16.886;2022-11-18T06:10:47;14.10;;;10.20;;
34072;SDS011;20346;52.702;16.886;2022-11-18T06:13:34;14.98;;;11.28;;
34072;SDS011;20346;52.702;16.886;2022-11-18T06:16:27;12.05;;;10.25;;
34072;SDS011;20346;52.702;16.886;2022-11-18T06:19:14;15.48;;;11.35;;
34072;SDS011;20346;52.702;16.886;2022-11-18T06:21:59;15.20;;;11.12;;
34072;SDS011;20346;52.702;16.886;2022-11-18T06:24:45;12.55;;;10.85;;
34072;SDS011;20346;52.702;16.886;2022-11-18T06:27:29;13.22;;;9.78;;
34072;SDS011;20346;52.702;16.886;2022-11-18T06:30:14;13.85;;;10.28;;
34072;SDS011;20346;52.702;16.886;2022-11-18T06:33:00;13.08;;;9.70;;
34072;SDS011;20346;52.702;16.886;2022-11-18T06:35:44;10.25;;;9.08;;
34072;SDS011;20346;52.702;16.886;2022-11-18T06:38:29;12.95;;;10.10;;
34072;SDS011;20346;52.702;16.886;2022-11-18T06:41:14;11.33;;;8.40;;
34072;SDS011;20346;52.702;16.886;2022-11-18T06:44:00;12.80;;;9.70;;
34072;SDS011;20346;52.702;16.886;2022-11-18T06:46:44;15.05;;;9.50;;
34072;SDS011;20346;52.702;16.886;2022-11-18T06:49:38;8.85;;;7.95;;
34072;SDS011;20346;52.702;16.886;2022-11-18T06:52:23;10.78;;;9.08;;
34072;SDS011;20346;52.702;16.886;2022-11-18T06:55:08;13.08;;;9.70;;
34072;SDS011;20346;52.702;16.886;2022-11-18T06:57:54;26.55;;;15.28;;
34072;SDS011;20346;52.702;16.886;2022-11-18T07:00:40;15.23;;;10.08;;
34072;SDS011;20346;52.702;16.886;2022-11-18T07:03:25;11.30;;;8.87;;
34072;SDS011;20346;52.702;16.886;2022-11-18T07:06:11;7.17;;;6.40;;
34072;SDS011;20346;52.702;16.886;2022-11-18T07:08:59;6.60;;;5.47;;
34072;SDS011;20346;52.702;16.886;2022-11-18T07:11:49;5.25;;;4.75;;
34072;SDS011;20346;52.702;16.886;2022-11-18T07:14:34;5.62;;;5.03;;
34072;SDS011;20346;52.702;16.886;2022-11-18T07:17:19;5.15;;;4.30;;
34072;SDS011;20346;52.702;16.886;2022-11-18T07:20:04;5.83;;;4.80;;
34072;SDS011;20346;52.702;16.886;2022-11-18T07:25:37;25.02;;;11.75;;
34072;SDS011;20346;52.702;16.886;2022-11-18T07:28:22;12.28;;;7.22;;
34072;SDS011;20346;52.702;16.886;2022-11-18T07:31:15;12.28;;;7.97;;
34072;SDS011;20346;52.702;16.886;2022-11-18T07:33:58;7.87;;;5.53;;
34072;SDS011;20346;52.702;16.886;2022-11-18T07:36:43;4.20;;;3.80;;
34072;SDS011;20346;52.702;16.886;2022-11-18T07:39:28;5.22;;;3.67;;
34072;SDS011;20346;52.702;16.886;2022-11-18T07:42:13;4.83;;;4.03;;
34072;SDS011;20346;52.702;16.886;2022-11-18T07:44:58;4.42;;;3.50;;
34072;SDS011;20346;52.702;16.886;2022-11-18T07:47:43;6.20;;;4.33;;
34072;SDS011;20346;52.702;16.886;2022-11-18T07:50:28;3.90;;;3.47;;
34072;SDS011;20346;52.702;16.886;2022-11-18T07:53:13;3.90;;;3.50;;
34072;SDS011;20346;52.702;16.886;2022-11-18T07:55:58;4.00;;;3.60;;
34072;SDS011;20346;52.702;16.886;2022-11-18T07:58:43;5.20;;;3.52;;
34072;SDS011;20346;52.702;16.886;2022-11-18T08:01:28;4.72;;;3.45;;
34072;SDS011;20346;52.702;16.886;2022-11-18T08:04:16;7.37;;;4.53;;
34072;SDS011;20346;52.702;16.886;2022-11-18T08:07:02;6.15;;;3.67;;
34072;SDS011;20346;52.702;16.886;2022-11-18T08:09:46;4.30;;;3.60;;
34072;SDS011;20346;52.702;16.886;2022-11-18T08:12:31;5.30;;;3.30;;
34072;SDS011;20346;52.702;16.886;2022-11-18T08:15:16;6.90;;;3.65;;
34072;SDS011;20346;52.702;16.886;2022-11-18T08:18:01;31.20;;;10.78;;
34072;SDS011;20346;52.702;16.886;2022-11-18T08:20:47;14.70;;;7.85;;
34072;SDS011;20346;52.702;16.886;2022-11-18T08:23:32;14.30;;;6.65;;
34072;SDS011;20346;52.702;16.886;2022-11-18T08:26:17;11.48;;;5.90;;
34072;SDS011;20346;52.702;16.886;2022-11-18T08:29:02;10.23;;;6.30;;
34072;SDS011;20346;52.702;16.886;2022-11-18T08:31:47;7.42;;;4.85;;
34072;SDS011;20346;52.702;16.886;2022-11-18T08:34:32;5.17;;;3.42;;
34072;SDS011;20346;52.702;16.886;2022-11-18T08:37:17;7.90;;;2.40;;
34072;SDS011;20346;52.702;16.886;2022-11-18T08:40:02;3.83;;;2.85;;
34072;SDS011;20346;52.702;16.886;2022-11-18T08:42:48;2.72;;;2.33;;
34072;SDS011;20346;52.702;16.886;2022-11-18T08:45:33;5.00;;;3.10;;
34072;SDS011;20346;52.702;16.886;2022-11-18T08:48:19;5.10;;;2.77;;
34072;SDS011;20346;52.702;16.886;2022-11-18T08:51:04;5.33;;;4.20;;
34072;SDS011;20346;52.702;16.886;2022-11-18T08:53:52;5.33;;;4.12;;
34072;SDS011;20346;52.702;16.886;2022-11-18T08:56:38;5.00;;;3.70;;
34072;SDS011;20346;52.702;16.886;2022-11-18T08:59:22;6.22;;;4.80;;
34072;SDS011;20346;52.702;16.886;2022-11-18T09:02:14;5.07;;;3.77;;
34072;SDS011;20346;52.702;16.886;2022-11-18T09:05:00;5.45;;;2.60;;
34072;SDS011;20346;52.702;16.886;2022-11-18T09:07:46;3.33;;;2.45;;
34072;SDS011;20346;52.702;16.886;2022-11-18T09:10:31;5.47;;;3.72;;
34072;SDS011;20346;52.702;16.886;2022-11-18T09:13:17;10.43;;;4.67;;
34072;SDS011;20346;52.702;16.886;2022-11-18T09:16:02;4.58;;;3.02;;
34072;SDS011;20346;52.702;16.886;2022-11-18T09:18:48;5.87;;;3.02;;
34072;SDS011;20346;52.702;16.886;2022-11-18T09:21:34;4.15;;;3.25;;
34072;SDS011;20346;52.702;16.886;2022-11-18T09:24:19;4.72;;;2.77;;
34072;SDS011;20346;52.702;16.886;2022-11-18T09:27:04;3.50;;;3.20;;
34072;SDS011;20346;52.702;16.886;2022-11-18T09:29:50;4.62;;;3.58;;
34072;SDS011;20346;52.702;16.886;2022-11-18T09:32:35;3.80;;;3.00;;
34072;SDS011;20346;52.702;16.886;2022-11-18T09:35:20;3.37;;;3.08;;
34072;SDS011;20346;52.702;16.886;2022-11-18T09:38:05;4.33;;;3.40;;
34072;SDS011;20346;52.702;16.886;2022-11-18T09:44:21;7.33;;;4.33;;
34072;SDS011;20346;52.702;16.886;2022-11-18T09:50:05;3.37;;;3.08;;
34072;SDS011;20346;52.702;16.886;2022-11-18T09:56:04;7.60;;;4.55;;
34072;SDS011;20346;52.702;16.886;2022-11-18T09:58:57;5.35;;;4.28;;
34072;SDS011;20346;52.702;16.886;2022-11-18T10:01:42;4.25;;;3.80;;
34072;SDS011;20346;52.702;16.886;2022-11-18T10:07:17;4.58;;;3.37;;
34072;SDS011;20346;52.702;16.886;2022-11-18T10:10:26;4.25;;;3.35;;
34072;SDS011;20346;52.702;16.886;2022-11-18T10:13:23;6.20;;;3.90;;
34072;SDS011;20346;52.702;16.886;2022-11-18T10:16:35;3.77;;;3.37;;
34072;SDS011;20346;52.702;16.886;2022-11-18T10:25:30;8.28;;;3.85;;
34072;SDS011;20346;52.702;16.886;2022-11-18T10:28:23;7.00;;;3.92;;
34072;SDS011;20346;52.702;16.886;2022-11-18T10:31:13;6.90;;;4.30;;
34072;SDS011;20346;52.702;16.886;2022-11-18T10:33:59;4.62;;;3.47;;
34072;SDS011;20346;52.702;16.886;2022-11-18T10:36:56;5.17;;;4.10;;
34072;SDS011;20346;52.702;16.886;2022-11-18T10:39:56;3.65;;;3.25;;
34072;SDS011;20346;52.702;16.886;2022-11-18T10:42:44;6.87;;;3.85;;
34072;SDS011;20346;52.702;16.886;2022-11-18T10:45:30;5.43;;;3.93;;
34072;SDS011;20346;52.702;16.886;2022-11-18T10:48:17;5.30;;;4.15;;
34072;SDS011;20346;52.702;16.886;2022-11-18T10:51:02;5.08;;;3.27;;
34072;SDS011;20346;52.702;16.886;2022-11-18T10:53:52;4.10;;;3.70;;
34072;SDS011;20346;52.702;16.886;2022-11-18T11:00:04;4.37;;;3.50;;
34072;SDS011;20346;52.702;16.886;2022-11-18T11:02:51;4.35;;;3.72;;
34072;SDS011;20346;52.702;16.886;2022-11-18T11:05:36;5.40;;;4.25;;
34072;SDS011;20346;52.702;16.886;2022-11-18T11:08:21;4.80;;;3.87;;
34072;SDS011;20346;52.702;16.886;2022-11-18T11:11:15;6.67;;;4.37;;
34072;SDS011;20346;52.702;16.886;2022-11-18T11:14:00;4.87;;;3.65;;
34072;SDS011;20346;52.702;16.886;2022-11-18T11:17:16;4.22;;;3.45;;
34072;SDS011;20346;52.702;16.886;2022-11-18T11:20:32;10.15;;;4.53;;
34072;SDS011;20346;52.702;16.886;2022-11-18T11:23:18;5.87;;;4.53;;
34072;SDS011;20346;52.702;16.886;2022-11-18T11:45:57;7.72;;;5.33;;
34072;SDS011;20346;52.702;16.886;2022-11-18T11:49:51;5.35;;;3.90;;
34072;SDS011;20346;52.702;16.886;2022-11-18T11:52:10;5.00;;;3.30;;
34072;SDS011;20346;52.702;16.886;2022-11-18T11:55:13;4.62;;;3.27;;
34072;SDS011;20346;52.702;16.886;2022-11-18T12:07:24;4.12;;;3.05;;
34072;SDS011;20346;52.702;16.886;2022-11-18T12:13:52;8.55;;;3.92;;
34072;SDS011;20346;52.702;16.886;2022-11-18T12:16:44;9.43;;;4.28;;
34072;SDS011;20346;52.702;16.886;2022-11-18T12:19:36;25.70;;;18.95;;
34072;SDS011;20346;52.702;16.886;2022-11-18T12:25:42;8.95;;;6.05;;
34072;SDS011;20346;52.702;16.886;2022-11-18T12:28:36;5.15;;;3.87;;
34072;SDS011;20346;52.702;16.886;2022-11-18T12:31:31;5.90;;;4.10;;
34072;SDS011;20346;52.702;16.886;2022-11-18T12:34:30;7.15;;;4.25;;
34072;SDS011;20346;52.702;16.886;2022-11-18T12:55:25;1.57;;;1.40;;
34072;SDS011;20346;52.702;16.886;2022-11-18T12:58:21;2.20;;;1.72;;
34072;SDS011;20346;52.702;16.886;2022-11-18T13:01:09;2.55;;;1.55;;
34072;SDS011;20346;52.702;16.886;2022-11-18T13:07:02;2.98;;;2.22;;
34072;SDS011;20346;52.702;16.886;2022-11-18T13:09:53;2.40;;;2.15;;
34072;SDS011;20346;52.702;16.886;2022-11-18T13:12:39;3.08;;;2.10;;
34072;SDS011;20346;52.702;16.886;2022-11-18T13:15:27;7.22;;;3.50;;
34072;SDS011;20346;52.702;16.886;2022-11-18T13:18:31;4.60;;;2.40;;
34072;SDS011;20346;52.702;16.886;2022-11-18T13:21:21;2.92;;;1.62;;
34072;SDS011;20346;52.702;16.886;2022-11-18T13:24:30;2.50;;;1.50;;
34072;SDS011;20346;52.702;16.886;2022-11-18T13:27:23;2.35;;;1.57;;
34072;SDS011;20346;52.702;16.886;2022-11-18T13:30:20;1.92;;;1.55;;
34072;SDS011;20346;52.702;16.886;2022-11-18T13:33:08;3.50;;;1.95;;
34072;SDS011;20346;52.702;16.886;2022-11-18T13:35:54;4.08;;;1.37;;
34072;SDS011;20346;52.702;16.886;2022-11-18T13:38:39;4.70;;;1.52;;
34072;SDS011;20346;52.702;16.886;2022-11-18T13:41:30;1.50;;;1.40;;
34072;SDS011;20346;52.702;16.886;2022-11-18T13:44:22;2.95;;;1.80;;
34072;SDS011;20346;52.702;16.886;2022-11-18T13:47:12;4.15;;;2.25;;
34072;SDS011;20346;52.702;16.886;2022-11-18T13:50:26;5.20;;;2.50;;
34072;SDS011;20346;52.702;16.886;2022-11-18T13:56:23;9.58;;;5.05;;
34072;SDS011;20346;52.702;16.886;2022-11-18T13:59:14;5.67;;;2.70;;
34072;SDS011;20346;52.702;16.886;2022-11-18T14:02:06;5.53;;;2.65;;
34072;SDS011;20346;52.702;16.886;2022-11-18T14:04:53;3.77;;;2.62;;
34072;SDS011;20346;52.702;16.886;2022-11-18T14:07:40;2.98;;;2.12;;
34072;SDS011;20346;52.702;16.886;2022-11-18T14:10:29;6.10;;;2.95;;
34072;SDS011;20346;52.702;16.886;2022-11-18T14:22:14;4.20;;;2.33;;
34072;SDS011;20346;52.702;16.886;2022-11-18T14:25:17;4.25;;;2.52;;
34072;SDS011;20346;52.702;16.886;2022-11-18T14:34:19;3.55;;;2.35;;
34072;SDS011;20346;52.702;16.886;2022-11-18T14:37:10;6.85;;;3.72;;
34072;SDS011;20346;52.702;16.886;2022-11-18T14:39:57;7.55;;;4.45;;
34072;SDS011;20346;52.702;16.886;2022-11-18T14:42:42;14.55;;;7.17;;
34072;SDS011;20346;52.702;16.886;2022-11-18T14:45:27;14.55;;;8.48;;
34072;SDS011;20346;52.702;16.886;2022-11-18T14:48:12;20.12;;;10.45;;
34072;SDS011;20346;52.702;16.886;2022-11-18T14:51:00;25.40;;;13.05;;
34072;SDS011;20346;52.702;16.886;2022-11-18T14:53:45;13.50;;;9.28;;
34072;SDS011;20346;52.702;16.886;2022-11-18T14:56:30;18.10;;;6.70;;
34072;SDS011;20346;52.702;16.886;2022-11-18T14:59:18;12.40;;;7.90;;
34072;SDS011;20346;52.702;16.886;2022-11-18T15:02:03;6.35;;;4.65;;
34072;SDS011;20346;52.702;16.886;2022-11-18T15:04:49;7.92;;;5.78;;
34072;SDS011;20346;52.702;16.886;2022-11-18T15:07:35;19.55;;;12.43;;
34072;SDS011;20346;52.702;16.886;2022-11-18T15:10:20;19.42;;;12.80;;
34072;SDS011;20346;52.702;16.886;2022-11-18T15:13:06;13.32;;;9.53;;
34072;SDS011;20346;52.702;16.886;2022-11-18T15:15:50;11.75;;;8.30;;
34072;SDS011;20346;52.702;16.886;2022-11-18T15:18:36;17.05;;;12.50;;
34072;SDS011;20346;52.702;16.886;2022-11-18T15:21:21;8.80;;;7.78;;
34072;SDS011;20346;52.702;16.886;2022-11-18T15:26:51;36.83;;;16.23;;
34072;SDS011;20346;52.702;16.886;2022-11-18T15:29:36;23.25;;;11.28;;
34072;SDS011;20346;52.702;16.886;2022-11-18T15:32:21;17.15;;;7.65;;
34072;SDS011;20346;52.702;16.886;2022-11-18T15:35:06;22.93;;;11.38;;
34072;SDS011;20346;52.702;16.886;2022-11-18T15:37:53;14.05;;;6.85;;
34072;SDS011;20346;52.702;16.886;2022-11-18T15:40:38;10.20;;;5.78;;
34072;SDS011;20346;52.702;16.886;2022-11-18T15:43:23;7.22;;;4.33;;
34072;SDS011;20346;52.702;16.886;2022-11-18T15:46:08;10.45;;;5.78;;
34072;SDS011;20346;52.702;16.886;2022-11-18T15:48:53;19.55;;;10.28;;
34072;SDS011;20346;52.702;16.886;2022-11-18T15:51:40;10.23;;;6.00;;
34072;SDS011;20346;52.702;16.886;2022-11-18T15:54:25;17.75;;;10.20;;
34072;SDS011;20346;52.702;16.886;2022-11-18T15:57:10;32.03;;;16.57;;
34072;SDS011;20346;52.702;16.886;2022-11-18T15:59:55;33.85;;;19.42;;
34072;SDS011;20346;52.702;16.886;2022-11-18T16:02:40;21.68;;;15.20;;
34072;SDS011;20346;52.702;16.886;2022-11-18T16:05:25;13.28;;;9.60;;
34072;SDS011;20346;52.702;16.886;2022-11-18T16:08:10;11.83;;;6.80;;
34072;SDS011;20346;52.702;16.886;2022-11-18T16:10:55;9.20;;;4.83;;
34072;SDS011;20346;52.702;16.886;2022-11-18T16:14:03;9.93;;;5.22;;
34072;SDS011;20346;52.702;16.886;2022-11-18T16:16:47;13.62;;;4.87;;
34072;SDS011;20346;52.702;16.886;2022-11-18T16:19:33;12.98;;;6.58;;
34072;SDS011;20346;52.702;16.886;2022-11-18T16:22:18;14.28;;;8.78;;
34072;SDS011;20346;52.702;16.886;2022-11-18T16:25:03;7.85;;;4.97;;
34072;SDS011;20346;52.702;16.886;2022-11-18T16:27:49;9.73;;;6.58;;
34072;SDS011;20346;52.702;16.886;2022-11-18T16:30:33;10.68;;;4.58;;
34072;SDS011;20346;52.702;16.886;2022-11-18T16:33:36;12.18;;;5.85;;
34072;SDS011;20346;52.702;16.886;2022-11-18T16:36:25;11.93;;;7.08;;
34072;SDS011;20346;52.702;16.886;2022-11-18T16:39:17;21.17;;;11.85;;
34072;SDS011;20346;52.702;16.886;2022-11-18T16:42:09;10.28;;;6.72;;
34072;SDS011;20346;52.702;16.886;2022-11-18T16:44:55;10.60;;;7.42;;
34072;SDS011;20346;52.702;16.886;2022-11-18T16:47:40;16.57;;;9.05;;
34072;SDS011;20346;52.702;16.886;2022-11-18T16:50:25;12.28;;;7.90;;
34072;SDS011;20346;52.702;16.886;2022-11-18T16:53:10;13.25;;;7.55;;
34072;SDS011;20346;52.702;16.886;2022-11-18T16:55:59;13.08;;;7.00;;
34072;SDS011;20346;52.702;16.886;2022-11-18T16:58:47;11.63;;;5.92;;
34072;SDS011;20346;52.702;16.886;2022-11-18T17:01:32;10.25;;;6.50;;
34072;SDS011;20346;52.702;16.886;2022-11-18T17:04:18;7.05;;;5.15;;
34072;SDS011;20346;52.702;16.886;2022-11-18T17:07:04;8.73;;;4.95;;
34072;SDS011;20346;52.702;16.886;2022-11-18T17:09:49;5.60;;;4.40;;
34072;SDS011;20346;52.702;16.886;2022-11-18T17:12:34;9.78;;;5.37;;
34072;SDS011;20346;52.702;16.886;2022-11-18T17:15:19;6.70;;;4.20;;
34072;SDS011;20346;52.702;16.886;2022-11-18T17:18:04;29.02;;;13.28;;
34072;SDS011;20346;52.702;16.886;2022-11-18T17:20:48;41.42;;;17.55;;
34072;SDS011;20346;52.702;16.886;2022-11-18T17:23:34;25.95;;;12.18;;
34072;SDS011;20346;52.702;16.886;2022-11-18T17:26:20;37.60;;;18.97;;
34072;SDS011;20346;52.702;16.886;2022-11-18T17:29:10;41.23;;;22.52;;
34072;SDS011;20346;52.702;16.886;2022-11-18T17:31:56;61.92;;;31.30;;
34072;SDS011;20346;52.702;16.886;2022-11-18T17:34:41;63.73;;;33.25;;
34072;SDS011;20346;52.702;16.886;2022-11-18T17:37:27;36.95;;;21.45;;
34072;SDS011;20346;52.702;16.886;2022-11-18T17:40:12;25.12;;;15.40;;
34072;SDS011;20346;52.702;16.886;2022-11-18T17:42:57;11.48;;;7.80;;
34072;SDS011;20346;52.702;16.886;2022-11-18T17:45:42;13.38;;;6.87;;
34072;SDS011;20346;52.702;16.886;2022-11-18T17:48:35;10.13;;;6.67;;
34072;SDS011;20346;52.702;16.886;2022-11-18T17:51:21;9.10;;;5.75;;
34072;SDS011;20346;52.702;16.886;2022-11-18T17:54:06;7.85;;;5.67;;
34072;SDS011;20346;52.702;16.886;2022-11-18T17:56:52;9.80;;;5.20;;
34072;SDS011;20346;52.702;16.886;2022-11-18T17:59:37;7.92;;;5.70;;
34072;SDS011;20346;52.702;16.886;2022-11-18T18:02:22;16.73;;;6.53;;
34072;SDS011;20346;52.702;16.886;2022-11-18T18:05:08;11.18;;;5.45;;
34072;SDS011;20346;52.702;16.886;2022-11-18T18:07:54;11.35;;;6.22;;
34072;SDS011;20346;52.702;16.886;2022-11-18T18:10:39;12.82;;;8.38;;
34072;SDS011;20346;52.702;16.886;2022-11-18T18:13:24;12.37;;;7.60;;
34072;SDS011;20346;52.702;16.886;2022-11-18T18:16:28;8.60;;;5.85;;
34072;SDS011;20346;52.702;16.886;2022-11-18T18:19:16;11.93;;;5.78;;
34072;SDS011;20346;52.702;16.886;2022-11-18T18:22:03;6.95;;;4.12;;
34072;SDS011;20346;52.702;16.886;2022-11-18T18:24:48;7.33;;;4.97;;